sensor_id;sensor_type;location;lat;lon;timestamp;temperature;humidity
39371;DHT22;25099;51.946;4.838;2022-07-03T00:00:41;17.30;99.90
39371;DHT22;25099;51.946;4.838;2022-07-03T00:03:06;17.30;99.90
39371;DHT22;25099;51.946;4.838;2022-07-03T00:05:32;17.30;99.90
39371;DHT22;25099;51.946;4.838;2022-07-03T00:07:58;17.30;99.90
39371;DHT22;25099;51.946;4.838;2022-07-03T00:10:23;16.60;99.90
39371;DHT22;25099;51.946;4.838;2022-07-03T00:12:49;17.20;99.90
39371;DHT22;25099;51.946;4.838;2022-07-03T00:15:14;17.20;99.90
39371;DHT22;25099;51.946;4.838;2022-07-03T00:17:40;17.20;99.90
39371;DHT22;25099;51.946;4.838;2022-07-03T00:20:06;17.10;99.90
39371;DHT22;25099;51.946;4.838;2022-07-03T00:22:33;17.20;99.90
39371;DHT22;25099;51.946;4.838;2022-07-03T00:25:04;17.20;99.90
39371;DHT22;25099;51.946;4.838;2022-07-03T00:27:32;17.20;99.90
39371;DHT22;25099;51.946;4.838;2022-07-03T00:30:00;17.10;99.90
39371;DHT22;25099;51.946;4.838;2022-07-03T00:32:26;17.10;99.90
39371;DHT22;25099;51.946;4.838;2022-07-03T00:34:54;17.10;99.90
39371;DHT22;25099;51.946;4.838;2022-07-03T00:37:20;17.10;99.90
39371;DHT22;25099;51.946;4.838;2022-07-03T00:39:47;17.10;99.90
39371;DHT22;25099;51.946;4.838;2022-07-03T00:42:16;17.10;99.90
39371;DHT22;25099;51.946;4.838;2022-07-03T00:44:45;17.00;99.90
39371;DHT22;25099;51.946;4.838;2022-07-03T00:47:12;17.10;99.90
39371;DHT22;25099;51.946;4.838;2022-07-03T00:49:39;17.10;99.90
39371;DHT22;25099;51.946;4.838;2022-07-03T00:52:06;17.00;99.90
39371;DHT22;25099;51.946;4.838;2022-07-03T00:54:34;17.00;99.90
39371;DHT22;25099;51.946;4.838;2022-07-03T00:57:02;17.10;99.90
39371;DHT22;25099;51.946;4.838;2022-07-03T00:59:28;17.10;99.90
39371;DHT22;25099;51.946;4.838;2022-07-03T01:02:04;17.10;99.90
39371;DHT22;25099;51.946;4.838;2022-07-03T01:04:45;17.10;99.90
39371;DHT22;25099;51.946;4.838;2022-07-03T01:07:23;17.10;99.90
39371;DHT22;25099;51.946;4.838;2022-07-03T01:18:34;16.90;99.90
39371;DHT22;25099;51.946;4.838;2022-07-03T01:20:59;16.80;99.90
39371;DHT22;25099;51.946;4.838;2022-07-03T01:26:12;16.80;99.90
39371;DHT22;25099;51.946;4.838;2022-07-03T01:28:44;16.90;99.90
39371;DHT22;25099;51.946;4.838;2022-07-03T01:31:18;16.90;99.90
39371;DHT22;25099;51.946;4.838;2022-07-03T01:33:44;17.00;99.90
39371;DHT22;25099;51.946;4.838;2022-07-03T01:36:13;17.00;99.90
39371;DHT22;25099;51.946;4.838;2022-07-03T01:38:41;17.10;99.90
39371;DHT22;25099;51.946;4.838;2022-07-03T01:41:09;17.10;99.90
39371;DHT22;25099;51.946;4.838;2022-07-03T01:43:47;17.20;99.90
39371;DHT22;25099;51.946;4.838;2022-07-03T01:46:13;17.20;99.90
39371;DHT22;25099;51.946;4.838;2022-07-03T01:48:42;17.20;99.90
39371;DHT22;25099;51.946;4.838;2022-07-03T01:51:12;17.20;99.90
39371;DHT22;25099;51.946;4.838;2022-07-03T01:53:45;17.30;99.90
39371;DHT22;25099;51.946;4.838;2022-07-03T01:56:11;17.30;99.90
39371;DHT22;25099;51.946;4.838;2022-07-03T01:58:37;17.30;99.90
39371;DHT22;25099;51.946;4.838;2022-07-03T02:01:06;17.30;99.90
39371;DHT22;25099;51.946;4.838;2022-07-03T02:03:33;17.40;99.90
39371;DHT22;25099;51.946;4.838;2022-07-03T02:11:22;17.40;99.90
39371;DHT22;25099;51.946;4.838;2022-07-03T02:14:16;17.40;99.90
39371;DHT22;25099;51.946;4.838;2022-07-03T02:16:54;17.30;99.90
39371;DHT22;25099;51.946;4.838;2022-07-03T02:19:23;17.30;99.90
39371;DHT22;25099;51.946;4.838;2022-07-03T02:21:54;17.30;99.90
39371;DHT22;25099;51.946;4.838;2022-07-03T02:24:26;17.40;99.90
39371;DHT22;25099;51.946;4.838;2022-07-03T02:27:12;17.40;99.90
39371;DHT22;25099;51.946;4.838;2022-07-03T02:30:05;17.50;99.90
39371;DHT22;25099;51.946;4.838;2022-07-03T02:32:49;17.40;99.90
39371;DHT22;25099;51.946;4.838;2022-07-03T02:35:22;17.50;99.90
39371;DHT22;25099;51.946;4.838;2022-07-03T02:38:13;17.40;99.90
39371;DHT22;25099;51.946;4.838;2022-07-03T02:40:56;17.40;99.90
39371;DHT22;25099;51.946;4.838;2022-07-03T02:43:38;17.30;99.90
39371;DHT22;25099;51.946;4.838;2022-07-03T02:46:18;17.20;99.90
39371;DHT22;25099;51.946;4.838;2022-07-03T02:51:41;17.10;99.90
39371;DHT22;25099;51.946;4.838;2022-07-03T02:54:14;17.10;99.90
39371;DHT22;25099;51.946;4.838;2022-07-03T02:57:05;17.10;99.90
39371;DHT22;25099;51.946;4.838;2022-07-03T02:59:54;17.10;99.90
39371;DHT22;25099;51.946;4.838;2022-07-03T03:05:13;17.10;99.90
39371;DHT22;25099;51.946;4.838;2022-07-03T03:10:19;17.10;99.90
39371;DHT22;25099;51.946;4.838;2022-07-03T03:12:47;17.10;99.90
39371;DHT22;25099;51.946;4.838;2022-07-03T03:15:18;17.00;99.90
39371;DHT22;25099;51.946;4.838;2022-07-03T03:17:50;17.00;99.90
39371;DHT22;25099;51.946;4.838;2022-07-03T03:20:17;16.90;99.90
39371;DHT22;25099;51.946;4.838;2022-07-03T03:23:17;17.00;99.90
39371;DHT22;25099;51.946;4.838;2022-07-03T03:25:44;17.00;99.90
39371;DHT22;25099;51.946;4.838;2022-07-03T03:28:10;17.00;99.90
39371;DHT22;25099;51.946;4.838;2022-07-03T03:30:36;17.00;99.90
39371;DHT22;25099;51.946;4.838;2022-07-03T03:33:06;17.10;99.90
39371;DHT22;25099;51.946;4.838;2022-07-03T03:35:36;17.10;99.90
39371;DHT22;25099;51.946;4.838;2022-07-03T03:38:02;17.10;99.90
39371;DHT22;25099;51.946;4.838;2022-07-03T03:40:28;17.20;99.90
39371;DHT22;25099;51.946;4.838;2022-07-03T03:42:53;17.20;99.90
39371;DHT22;25099;51.946;4.838;2022-07-03T03:45:19;17.30;99.90
39371;DHT22;25099;51.946;4.838;2022-07-03T03:47:45;17.20;99.90
39371;DHT22;25099;51.946;4.838;2022-07-03T03:50:10;17.20;99.90
39371;DHT22;25099;51.946;4.838;2022-07-03T03:52:36;17.30;99.90
39371;DHT22;25099;51.946;4.838;2022-07-03T03:55:02;17.20;99.90
39371;DHT22;25099;51.946;4.838;2022-07-03T03:57:28;17.20;99.90
39371;DHT22;25099;51.946;4.838;2022-07-03T03:59:55;17.20;99.90
39371;DHT22;25099;51.946;4.838;2022-07-03T04:02:20;17.20;99.90
39371;DHT22;25099;51.946;4.838;2022-07-03T04:04:46;17.20;99.90
39371;DHT22;25099;51.946;4.838;2022-07-03T04:07:12;17.20;99.90
39371;DHT22;25099;51.946;4.838;2022-07-03T04:09:37;17.20;99.90
39371;DHT22;25099;51.946;4.838;2022-07-03T04:12:04;17.20;99.90
39371;DHT22;25099;51.946;4.838;2022-07-03T04:14:29;17.20;99.90
39371;DHT22;25099;51.946;4.838;2022-07-03T04:16:55;17.20;99.90
39371;DHT22;25099;51.946;4.838;2022-07-03T04:19:21;17.30;99.90
39371;DHT22;25099;51.946;4.838;2022-07-03T04:21:48;17.40;99.90
39371;DHT22;25099;51.946;4.838;2022-07-03T04:24:15;17.30;99.90
39371;DHT22;25099;51.946;4.838;2022-07-03T04:26:40;17.40;99.90
39371;DHT22;25099;51.946;4.838;2022-07-03T04:29:07;17.40;99.90
39371;DHT22;25099;51.946;4.838;2022-07-03T04:31:33;17.40;99.90
39371;DHT22;25099;51.946;4.838;2022-07-03T04:33:58;17.40;99.90
39371;DHT22;25099;51.946;4.838;2022-07-03T04:36:24;17.40;99.90
39371;DHT22;25099;51.946;4.838;2022-07-03T04:38:49;17.40;99.90
39371;DHT22;25099;51.946;4.838;2022-07-03T04:41:15;17.40;99.90
39371;DHT22;25099;51.946;4.838;2022-07-03T04:43:41;17.50;99.90
39371;DHT22;25099;51.946;4.838;2022-07-03T04:46:06;17.60;99.90
39371;DHT22;25099;51.946;4.838;2022-07-03T04:48:32;17.50;99.90
39371;DHT22;25099;51.946;4.838;2022-07-03T04:50:58;17.70;99.90
39371;DHT22;25099;51.946;4.838;2022-07-03T04:53:24;17.70;99.90
39371;DHT22;25099;51.946;4.838;2022-07-03T04:55:49;17.70;99.90
39371;DHT22;25099;51.946;4.838;2022-07-03T04:58:15;17.80;99.90
39371;DHT22;25099;51.946;4.838;2022-07-03T05:00:43;17.90;99.90
39371;DHT22;25099;51.946;4.838;2022-07-03T05:03:09;17.90;99.90
39371;DHT22;25099;51.946;4.838;2022-07-03T05:05:34;18.00;99.90
39371;DHT22;25099;51.946;4.838;2022-07-03T05:08:00;18.00;99.90
39371;DHT22;25099;51.946;4.838;2022-07-03T05:10:26;18.00;99.90
39371;DHT22;25099;51.946;4.838;2022-07-03T05:12:52;17.90;99.90
39371;DHT22;25099;51.946;4.838;2022-07-03T05:15:18;17.90;99.90
39371;DHT22;25099;51.946;4.838;2022-07-03T05:17:43;18.00;99.90
39371;DHT22;25099;51.946;4.838;2022-07-03T05:20:09;18.10;99.90
39371;DHT22;25099;51.946;4.838;2022-07-03T05:22:51;18.30;99.90
39371;DHT22;25099;51.946;4.838;2022-07-03T05:25:18;18.40;99.90
39371;DHT22;25099;51.946;4.838;2022-07-03T05:27:43;18.50;99.90
39371;DHT22;25099;51.946;4.838;2022-07-03T05:30:10;18.60;99.90
39371;DHT22;25099;51.946;4.838;2022-07-03T05:32:36;18.70;99.90
39371;DHT22;25099;51.946;4.838;2022-07-03T05:35:02;18.60;99.90
39371;DHT22;25099;51.946;4.838;2022-07-03T05:37:27;18.70;99.90
39371;DHT22;25099;51.946;4.838;2022-07-03T05:39:53;18.80;99.90
39371;DHT22;25099;51.946;4.838;2022-07-03T05:42:19;18.70;99.90
39371;DHT22;25099;51.946;4.838;2022-07-03T05:44:44;18.70;99.90
39371;DHT22;25099;51.946;4.838;2022-07-03T05:47:10;18.70;99.90
39371;DHT22;25099;51.946;4.838;2022-07-03T05:49:36;18.70;99.90
39371;DHT22;25099;51.946;4.838;2022-07-03T05:52:01;18.60;99.90
39371;DHT22;25099;51.946;4.838;2022-07-03T05:54:27;18.60;99.90
39371;DHT22;25099;51.946;4.838;2022-07-03T05:56:53;18.60;99.90
39371;DHT22;25099;51.946;4.838;2022-07-03T05:59:18;18.60;99.90
39371;DHT22;25099;51.946;4.838;2022-07-03T06:01:44;18.70;99.90
39371;DHT22;25099;51.946;4.838;2022-07-03T06:04:09;18.80;99.90
39371;DHT22;25099;51.946;4.838;2022-07-03T06:06:35;18.90;99.90
39371;DHT22;25099;51.946;4.838;2022-07-03T06:09:00;18.90;99.90
39371;DHT22;25099;51.946;4.838;2022-07-03T06:11:26;19.00;99.90
39371;DHT22;25099;51.946;4.838;2022-07-03T06:13:51;19.00;99.90
39371;DHT22;25099;51.946;4.838;2022-07-03T06:16:17;18.90;99.90
39371;DHT22;25099;51.946;4.838;2022-07-03T06:18:43;18.90;99.90
39371;DHT22;25099;51.946;4.838;2022-07-03T06:21:09;18.80;99.90
39371;DHT22;25099;51.946;4.838;2022-07-03T06:23:35;18.80;99.90
39371;DHT22;25099;51.946;4.838;2022-07-03T06:26:00;18.70;99.90
39371;DHT22;25099;51.946;4.838;2022-07-03T06:28:26;18.70;99.90
39371;DHT22;25099;51.946;4.838;2022-07-03T06:30:52;18.60;99.90
39371;DHT22;25099;51.946;4.838;2022-07-03T06:33:17;18.50;99.90
39371;DHT22;25099;51.946;4.838;2022-07-03T06:35:43;18.60;99.90
39371;DHT22;25099;51.946;4.838;2022-07-03T06:38:09;18.50;99.90
39371;DHT22;25099;51.946;4.838;2022-07-03T06:40:34;18.50;99.90
39371;DHT22;25099;51.946;4.838;2022-07-03T06:43:00;18.50;99.90
39371;DHT22;25099;51.946;4.838;2022-07-03T06:45:25;18.60;99.90
39371;DHT22;25099;51.946;4.838;2022-07-03T06:47:51;18.60;99.90
39371;DHT22;25099;51.946;4.838;2022-07-03T06:50:17;18.60;99.90
39371;DHT22;25099;51.946;4.838;2022-07-03T06:52:42;18.60;99.90
39371;DHT22;25099;51.946;4.838;2022-07-03T06:55:08;18.70;99.90
39371;DHT22;25099;51.946;4.838;2022-07-03T06:57:34;18.70;99.90
39371;DHT22;25099;51.946;4.838;2022-07-03T06:59:59;18.80;99.90
39371;DHT22;25099;51.946;4.838;2022-07-03T07:02:25;18.80;99.90
39371;DHT22;25099;51.946;4.838;2022-07-03T07:04:50;18.80;99.90
39371;DHT22;25099;51.946;4.838;2022-07-03T07:07:16;18.90;99.90
39371;DHT22;25099;51.946;4.838;2022-07-03T07:09:41;18.90;99.90
39371;DHT22;25099;51.946;4.838;2022-07-03T07:12:07;19.00;99.90
39371;DHT22;25099;51.946;4.838;2022-07-03T07:14:33;19.10;99.90
39371;DHT22;25099;51.946;4.838;2022-07-03T07:16:58;19.20;99.90
39371;DHT22;25099;51.946;4.838;2022-07-03T07:19:24;19.20;99.90
39371;DHT22;25099;51.946;4.838;2022-07-03T07:21:50;19.30;99.90
39371;DHT22;25099;51.946;4.838;2022-07-03T07:24:15;19.40;99.90
39371;DHT22;25099;51.946;4.838;2022-07-03T07:26:41;19.60;99.90
39371;DHT22;25099;51.946;4.838;2022-07-03T07:29:06;19.80;99.90
39371;DHT22;25099;51.946;4.838;2022-07-03T07:31:32;20.10;99.90
39371;DHT22;25099;51.946;4.838;2022-07-03T07:33:57;20.20;99.90
39371;DHT22;25099;51.946;4.838;2022-07-03T07:36:23;20.20;99.90
39371;DHT22;25099;51.946;4.838;2022-07-03T07:38:48;20.20;99.90
39371;DHT22;25099;51.946;4.838;2022-07-03T07:41:14;20.30;99.90
39371;DHT22;25099;51.946;4.838;2022-07-03T07:43:40;20.30;99.90
39371;DHT22;25099;51.946;4.838;2022-07-03T07:46:05;20.30;99.90
39371;DHT22;25099;51.946;4.838;2022-07-03T07:48:33;20.40;99.90
39371;DHT22;25099;51.946;4.838;2022-07-03T07:50:59;20.50;99.90
39371;DHT22;25099;51.946;4.838;2022-07-03T07:53:24;20.70;99.90
39371;DHT22;25099;51.946;4.838;2022-07-03T07:55:50;20.80;99.90
39371;DHT22;25099;51.946;4.838;2022-07-03T07:58:15;20.90;99.90
39371;DHT22;25099;51.946;4.838;2022-07-03T08:00:41;21.00;99.90
39371;DHT22;25099;51.946;4.838;2022-07-03T08:03:26;21.10;99.90
39371;DHT22;25099;51.946;4.838;2022-07-03T08:06:11;21.20;99.90
39371;DHT22;25099;51.946;4.838;2022-07-03T08:08:36;21.30;99.90
39371;DHT22;25099;51.946;4.838;2022-07-03T08:11:02;21.50;99.90
39371;DHT22;25099;51.946;4.838;2022-07-03T08:13:27;21.50;99.90
39371;DHT22;25099;51.946;4.838;2022-07-03T08:15:53;21.60;99.90
39371;DHT22;25099;51.946;4.838;2022-07-03T08:18:19;21.70;99.90
39371;DHT22;25099;51.946;4.838;2022-07-03T08:20:44;21.90;99.90
39371;DHT22;25099;51.946;4.838;2022-07-03T08:23:10;22.00;99.90
39371;DHT22;25099;51.946;4.838;2022-07-03T08:25:35;22.00;99.90
39371;DHT22;25099;51.946;4.838;2022-07-03T08:28:02;22.00;99.90
39371;DHT22;25099;51.946;4.838;2022-07-03T08:30:28;22.00;99.90
39371;DHT22;25099;51.946;4.838;2022-07-03T08:32:57;22.00;99.90
39371;DHT22;25099;51.946;4.838;2022-07-03T08:35:23;22.10;99.90
39371;DHT22;25099;51.946;4.838;2022-07-03T08:37:50;22.10;99.90
39371;DHT22;25099;51.946;4.838;2022-07-03T08:40:17;22.20;99.90
39371;DHT22;25099;51.946;4.838;2022-07-03T08:45:17;22.30;99.90
39371;DHT22;25099;51.946;4.838;2022-07-03T08:47:44;22.40;99.90
39371;DHT22;25099;51.946;4.838;2022-07-03T08:50:11;22.40;99.90
39371;DHT22;25099;51.946;4.838;2022-07-03T08:52:38;22.30;99.90
39371;DHT22;25099;51.946;4.838;2022-07-03T08:55:04;21.80;99.90
39371;DHT22;25099;51.946;4.838;2022-07-03T08:57:32;22.40;99.90
39371;DHT22;25099;51.946;4.838;2022-07-03T09:00:06;22.40;99.90
39371;DHT22;25099;51.946;4.838;2022-07-03T09:02:32;22.50;99.90
39371;DHT22;25099;51.946;4.838;2022-07-03T09:04:59;22.50;99.90
39371;DHT22;25099;51.946;4.838;2022-07-03T09:07:28;22.60;99.90
39371;DHT22;25099;51.946;4.838;2022-07-03T09:09:55;22.70;99.90
39371;DHT22;25099;51.946;4.838;2022-07-03T09:12:21;22.80;99.90
39371;DHT22;25099;51.946;4.838;2022-07-03T09:14:47;22.80;99.90
39371;DHT22;25099;51.946;4.838;2022-07-03T09:17:13;23.00;99.90
39371;DHT22;25099;51.946;4.838;2022-07-03T09:19:41;23.00;99.90
39371;DHT22;25099;51.946;4.838;2022-07-03T09:22:24;23.10;99.90
39371;DHT22;25099;51.946;4.838;2022-07-03T09:25:10;23.30;99.90
39371;DHT22;25099;51.946;4.838;2022-07-03T09:27:38;23.60;99.90
39371;DHT22;25099;51.946;4.838;2022-07-03T09:30:08;23.90;99.90
39371;DHT22;25099;51.946;4.838;2022-07-03T09:37:59;24.10;99.90
39371;DHT22;25099;51.946;4.838;2022-07-03T09:40:53;24.30;99.90
39371;DHT22;25099;51.946;4.838;2022-07-03T09:43:29;24.40;99.40
39371;DHT22;25099;51.946;4.838;2022-07-03T09:45:59;24.30;99.50
39371;DHT22;25099;51.946;4.838;2022-07-03T09:48:33;24.20;99.50
39371;DHT22;25099;51.946;4.838;2022-07-03T09:51:21;24.20;99.70
39371;DHT22;25099;51.946;4.838;2022-07-03T09:53:54;24.20;99.90
39371;DHT22;25099;51.946;4.838;2022-07-03T09:56:22;24.30;99.50
39371;DHT22;25099;51.946;4.838;2022-07-03T09:59:12;24.20;98.90
39371;DHT22;25099;51.946;4.838;2022-07-03T10:01:42;24.10;99.20
39371;DHT22;25099;51.946;4.838;2022-07-03T10:04:22;23.90;99.40
39371;DHT22;25099;51.946;4.838;2022-07-03T10:06:58;23.30;99.90
39371;DHT22;25099;51.946;4.838;2022-07-03T10:09:32;22.70;99.90
39371;DHT22;25099;51.946;4.838;2022-07-03T10:12:00;22.30;99.90
39371;DHT22;25099;51.946;4.838;2022-07-03T10:14:31;21.70;99.90
39371;DHT22;25099;51.946;4.838;2022-07-03T10:16:57;21.30;99.90
39371;DHT22;25099;51.946;4.838;2022-07-03T10:19:26;21.10;99.90
39371;DHT22;25099;51.946;4.838;2022-07-03T10:21:55;21.00;99.90
39371;DHT22;25099;51.946;4.838;2022-07-03T10:24:23;21.00;99.90
39371;DHT22;25099;51.946;4.838;2022-07-03T10:26:50;20.90;99.90
39371;DHT22;25099;51.946;4.838;2022-07-03T10:29:16;21.00;99.90
39371;DHT22;25099;51.946;4.838;2022-07-03T10:31:46;20.90;99.90
39371;DHT22;25099;51.946;4.838;2022-07-03T10:34:22;20.90;99.90
39371;DHT22;25099;51.946;4.838;2022-07-03T10:36:59;21.00;99.90
39371;DHT22;25099;51.946;4.838;2022-07-03T10:39:56;21.20;99.90
39371;DHT22;25099;51.946;4.838;2022-07-03T10:42:44;21.30;99.90
39371;DHT22;25099;51.946;4.838;2022-07-03T10:45:29;21.50;99.90
39371;DHT22;25099;51.946;4.838;2022-07-03T10:47:55;21.60;99.90
39371;DHT22;25099;51.946;4.838;2022-07-03T10:50:22;21.80;99.90
39371;DHT22;25099;51.946;4.838;2022-07-03T10:52:48;21.90;99.90
39371;DHT22;25099;51.946;4.838;2022-07-03T10:55:15;22.00;99.90
39371;DHT22;25099;51.946;4.838;2022-07-03T10:57:43;22.10;99.90
39371;DHT22;25099;51.946;4.838;2022-07-03T11:00:18;22.20;99.90
39371;DHT22;25099;51.946;4.838;2022-07-03T11:02:50;22.50;99.90
39371;DHT22;25099;51.946;4.838;2022-07-03T11:05:24;22.90;99.90
39371;DHT22;25099;51.946;4.838;2022-07-03T11:13:04;23.80;97.40
39371;DHT22;25099;51.946;4.838;2022-07-03T11:36:31;21.10;99.90
39371;DHT22;25099;51.946;4.838;2022-07-03T11:41:30;20.70;99.90
39371;DHT22;25099;51.946;4.838;2022-07-03T11:44:08;20.70;99.90
39371;DHT22;25099;51.946;4.838;2022-07-03T11:46:36;20.70;99.90
39371;DHT22;25099;51.946;4.838;2022-07-03T11:49:12;20.80;99.90
39371;DHT22;25099;51.946;4.838;2022-07-03T11:51:53;20.90;99.90
39371;DHT22;25099;51.946;4.838;2022-07-03T11:54:18;21.00;99.90
39371;DHT22;25099;51.946;4.838;2022-07-03T11:56:47;21.30;99.90
39371;DHT22;25099;51.946;4.838;2022-07-03T11:59:13;21.50;99.90
39371;DHT22;25099;51.946;4.838;2022-07-03T12:01:39;21.70;99.90
39371;DHT22;25099;51.946;4.838;2022-07-03T12:06:37;22.20;99.90
39371;DHT22;25099;51.946;4.838;2022-07-03T12:11:40;22.50;99.90
39371;DHT22;25099;51.946;4.838;2022-07-03T12:14:05;22.70;99.90
39371;DHT22;25099;51.946;4.838;2022-07-03T12:16:34;22.60;99.90
39371;DHT22;25099;51.946;4.838;2022-07-03T12:19:04;22.40;99.90
39371;DHT22;25099;51.946;4.838;2022-07-03T12:21:38;22.20;99.90
39371;DHT22;25099;51.946;4.838;2022-07-03T12:24:12;22.00;99.90
39371;DHT22;25099;51.946;4.838;2022-07-03T12:26:38;21.80;99.90
39371;DHT22;25099;51.946;4.838;2022-07-03T12:29:09;21.80;99.90
39371;DHT22;25099;51.946;4.838;2022-07-03T12:31:43;22.00;99.90
39371;DHT22;25099;51.946;4.838;2022-07-03T12:34:10;22.30;99.90
39371;DHT22;25099;51.946;4.838;2022-07-03T12:36:36;22.50;99.90
39371;DHT22;25099;51.946;4.838;2022-07-03T12:39:02;22.50;99.90
39371;DHT22;25099;51.946;4.838;2022-07-03T12:41:28;22.70;99.90
39371;DHT22;25099;51.946;4.838;2022-07-03T12:43:55;22.80;99.90
39371;DHT22;25099;51.946;4.838;2022-07-03T12:46:25;22.60;99.50
39371;DHT22;25099;51.946;4.838;2022-07-03T12:48:53;22.30;99.40
39371;DHT22;25099;51.946;4.838;2022-07-03T12:54:14;22.00;99.90
39371;DHT22;25099;51.946;4.838;2022-07-03T12:56:43;21.60;99.90
39371;DHT22;25099;51.946;4.838;2022-07-03T12:59:25;21.30;99.90
39371;DHT22;25099;51.946;4.838;2022-07-03T13:02:06;20.90;99.90
39371;DHT22;25099;51.946;4.838;2022-07-03T13:04:32;20.80;99.90
39371;DHT22;25099;51.946;4.838;2022-07-03T13:07:16;20.80;99.90
39371;DHT22;25099;51.946;4.838;2022-07-03T13:09:42;21.00;99.90
39371;DHT22;25099;51.946;4.838;2022-07-03T13:12:21;21.30;99.90
39371;DHT22;25099;51.946;4.838;2022-07-03T13:15:00;21.40;99.90
39371;DHT22;25099;51.946;4.838;2022-07-03T13:22:53;21.90;99.90
39371;DHT22;25099;51.946;4.838;2022-07-03T13:25:19;22.20;99.90
39371;DHT22;25099;51.946;4.838;2022-07-03T13:27:45;22.40;98.70
39371;DHT22;25099;51.946;4.838;2022-07-03T13:30:14;22.50;98.30
39371;DHT22;25099;51.946;4.838;2022-07-03T13:32:41;22.50;99.10
39371;DHT22;25099;51.946;4.838;2022-07-03T13:35:07;22.50;99.60
39371;DHT22;25099;51.946;4.838;2022-07-03T13:37:33;22.40;99.10
39371;DHT22;25099;51.946;4.838;2022-07-03T13:39:58;22.10;99.10
39371;DHT22;25099;51.946;4.838;2022-07-03T13:42:24;22.10;99.80
39371;DHT22;25099;51.946;4.838;2022-07-03T13:44:49;22.20;99.40
39371;DHT22;25099;51.946;4.838;2022-07-03T13:47:16;22.10;99.90
39371;DHT22;25099;51.946;4.838;2022-07-03T13:49:41;22.00;99.30
39371;DHT22;25099;51.946;4.838;2022-07-03T13:52:07;22.00;99.00
39371;DHT22;25099;51.946;4.838;2022-07-03T13:54:36;22.20;99.50
39371;DHT22;25099;51.946;4.838;2022-07-03T13:57:03;22.20;99.10
39371;DHT22;25099;51.946;4.838;2022-07-03T13:59:29;22.20;98.90
39371;DHT22;25099;51.946;4.838;2022-07-03T14:01:58;22.40;99.30
39371;DHT22;25099;51.946;4.838;2022-07-03T14:04:23;22.50;98.30
39371;DHT22;25099;51.946;4.838;2022-07-03T14:06:49;22.40;98.00
39371;DHT22;25099;51.946;4.838;2022-07-03T14:09:15;22.20;98.60
39371;DHT22;25099;51.946;4.838;2022-07-03T14:11:40;22.20;98.90
39371;DHT22;25099;51.946;4.838;2022-07-03T14:14:06;22.00;99.50
39371;DHT22;25099;51.946;4.838;2022-07-03T14:16:32;22.20;99.60
39371;DHT22;25099;51.946;4.838;2022-07-03T14:18:58;22.20;99.90
39371;DHT22;25099;51.946;4.838;2022-07-03T14:21:23;22.00;99.00
39371;DHT22;25099;51.946;4.838;2022-07-03T14:23:49;21.90;99.70
39371;DHT22;25099;51.946;4.838;2022-07-03T14:26:15;21.90;99.90
39371;DHT22;25099;51.946;4.838;2022-07-03T14:28:40;21.80;99.90
39371;DHT22;25099;51.946;4.838;2022-07-03T14:31:24;21.60;99.90
39371;DHT22;25099;51.946;4.838;2022-07-03T14:33:53;21.60;99.90
39371;DHT22;25099;51.946;4.838;2022-07-03T14:36:20;21.40;99.90
39371;DHT22;25099;51.946;4.838;2022-07-03T14:38:46;21.40;99.70
39371;DHT22;25099;51.946;4.838;2022-07-03T14:41:11;21.50;99.90
39371;DHT22;25099;51.946;4.838;2022-07-03T14:43:37;21.70;99.90
39371;DHT22;25099;51.946;4.838;2022-07-03T14:46:02;21.90;99.80
39371;DHT22;25099;51.946;4.838;2022-07-03T14:48:29;22.00;98.80
39371;DHT22;25099;51.946;4.838;2022-07-03T14:50:54;21.90;99.00
39371;DHT22;25099;51.946;4.838;2022-07-03T14:53:21;21.90;99.00
39371;DHT22;25099;51.946;4.838;2022-07-03T14:55:48;21.90;99.20
39371;DHT22;25099;51.946;4.838;2022-07-03T14:58:19;21.90;99.30
39371;DHT22;25099;51.946;4.838;2022-07-03T15:00:55;21.90;98.20
39371;DHT22;25099;51.946;4.838;2022-07-03T15:03:30;22.00;98.00
39371;DHT22;25099;51.946;4.838;2022-07-03T15:06:01;22.20;97.70
39371;DHT22;25099;51.946;4.838;2022-07-03T15:08:38;22.00;97.70
39371;DHT22;25099;51.946;4.838;2022-07-03T15:11:07;22.10;99.00
39371;DHT22;25099;51.946;4.838;2022-07-03T15:13:34;22.30;98.20
39371;DHT22;25099;51.946;4.838;2022-07-03T15:16:01;22.50;98.20
39371;DHT22;25099;51.946;4.838;2022-07-03T15:18:28;22.60;97.00
39371;DHT22;25099;51.946;4.838;2022-07-03T15:20:54;22.50;96.60
39371;DHT22;25099;51.946;4.838;2022-07-03T15:23:20;22.50;96.40
39371;DHT22;25099;51.946;4.838;2022-07-03T15:25:47;22.70;97.50
39371;DHT22;25099;51.946;4.838;2022-07-03T15:28:14;22.80;97.10
39371;DHT22;25099;51.946;4.838;2022-07-03T15:30:49;22.70;96.60
39371;DHT22;25099;51.946;4.838;2022-07-03T15:33:16;22.70;96.90
39371;DHT22;25099;51.946;4.838;2022-07-03T15:35:51;22.90;95.90
39371;DHT22;25099;51.946;4.838;2022-07-03T15:38:25;23.00;95.80
39371;DHT22;25099;51.946;4.838;2022-07-03T15:40:55;23.00;96.30
39371;DHT22;25099;51.946;4.838;2022-07-03T15:43:35;23.00;96.50
39371;DHT22;25099;51.946;4.838;2022-07-03T15:49:19;22.80;96.10
39371;DHT22;25099;51.946;4.838;2022-07-03T15:52:13;22.60;96.30
39371;DHT22;25099;51.946;4.838;2022-07-03T15:55:04;22.50;96.40
39371;DHT22;25099;51.946;4.838;2022-07-03T15:57:34;22.40;96.60
39371;DHT22;25099;51.946;4.838;2022-07-03T16:00:09;22.60;96.90
39371;DHT22;25099;51.946;4.838;2022-07-03T16:03:08;22.80;97.30
39371;DHT22;25099;51.946;4.838;2022-07-03T16:05:35;22.50;95.80
39371;DHT22;25099;51.946;4.838;2022-07-03T16:08:05;22.30;96.60
39371;DHT22;25099;51.946;4.838;2022-07-03T16:10:32;22.40;96.60
39371;DHT22;25099;51.946;4.838;2022-07-03T16:12:59;22.60;96.50
39371;DHT22;25099;51.946;4.838;2022-07-03T16:15:29;23.00;96.10
39371;DHT22;25099;51.946;4.838;2022-07-03T16:17:55;23.30;96.50
39371;DHT22;25099;51.946;4.838;2022-07-03T16:20:25;23.60;96.20
39371;DHT22;25099;51.946;4.838;2022-07-03T16:22:55;23.70;96.00
39371;DHT22;25099;51.946;4.838;2022-07-03T16:25:21;23.80;95.90
39371;DHT22;25099;51.946;4.838;2022-07-03T16:27:49;23.70;94.80
39371;DHT22;25099;51.946;4.838;2022-07-03T16:30:14;23.50;94.40
39371;DHT22;25099;51.946;4.838;2022-07-03T16:32:41;23.30;95.10
39371;DHT22;25099;51.946;4.838;2022-07-03T16:38:10;22.90;95.50
39371;DHT22;25099;51.946;4.838;2022-07-03T16:40:36;22.80;95.60
39371;DHT22;25099;51.946;4.838;2022-07-03T16:43:04;22.70;96.60
39371;DHT22;25099;51.946;4.838;2022-07-03T16:45:32;22.50;97.00
39371;DHT22;25099;51.946;4.838;2022-07-03T16:48:14;22.20;97.40
39371;DHT22;25099;51.946;4.838;2022-07-03T16:50:52;22.10;97.90
39371;DHT22;25099;51.946;4.838;2022-07-03T16:53:20;21.90;97.90
39371;DHT22;25099;51.946;4.838;2022-07-03T16:55:47;21.60;98.60
39371;DHT22;25099;51.946;4.838;2022-07-03T16:58:12;21.80;98.20
39371;DHT22;25099;51.946;4.838;2022-07-03T17:00:40;21.90;98.00
39371;DHT22;25099;51.946;4.838;2022-07-03T17:03:08;21.80;98.10